Terminal Aerodrome Forecast
Issued by NWS

Home | Current Version | Previous Version | Text Only | Print | Product List | Glossary On
Versions: 1 2 3 4 5 6 7 8 9 10 11 12 13 14 15 16 17 18 19 20 21 22 23 24 25 26 27
000
FTUS45 KBOI 281720
TAFMYL
TAF
KMYL 281720Z 2818/2918 34010KT P6SM BKN050
     FM282000 32015KT P6SM VCSH BKN050
     FM290100 34010KT P6SM VCSH BKN050
     FM290800 31006KT P6SM -SHRA SCT015 OVC025=

USA.gov is the U.S. government's official web portal to all federal, state and local government web resources and services.